Time;durP1;ratioP1;P1;durP2;ratioP2;P2;SDS_P1;SDS_P2;PMS_P1;PMS_P2;Temp;Humidity;BMP_temperature;BMP_pressure;BME280_temperature;BME280_humidity;BME280_pressure;Samples;Min_cycle;Max_cycle;Signal;HPM_P1;HPM_P2
2022/03/06 00:00:01;;;;;;;;;;;;;;;39.11;8.96;97611.19;169731;29;980;-55
2022/03/06 00:00:07;;;;;;;;;;;;;;;39.08;8.94;97609.72;170290;29;871;-55
2022/03/06 00:00:12;;;;;;;;;;;;;;;39.09;8.80;97610.53;168769;29;4296;-56
2022/03/06 00:00:18;;;;;;;;;;;;;;;39.11;8.90;97613.06;169848;29;902;-55
2022/03/06 00:00:23;;;;;;;;;;;;;;;39.12;8.91;97612.03;169678;29;1198;-56
2022/03/06 00:00:28;;;;;;;;;;;;;;;39.14;8.85;97609.97;170584;29;893;-56
2022/03/06 00:00:33;;;;;;;;;;;;;;;39.14;8.91;97612.66;170550;29;1052;-54
2022/03/06 00:00:40;;;;;;;;;;;;;;;39.16;8.76;97613.28;170480;29;810;-54
2022/03/06 00:00:45;;;;;;;;;;;;;;;39.16;8.91;97613.28;170462;29;988;-55
2022/03/06 00:00:50;;;;;;;;;;;;;;;39.19;8.70;97618.28;170022;29;815;-56
2022/03/06 00:00:55;;;;;;;;;;;;;;;39.19;8.87;97612.88;170392;29;1039;-56
2022/03/06 00:01:01;;;;;;;;;;;;;;;39.18;8.91;97613.91;170486;28;977;-56
2022/03/06 00:01:06;;;;;;;;;;;;;;;39.18;8.91;97612.03;171204;28;1170;-55
2022/03/06 00:01:12;;;;;;;;;;;;;;;39.20;8.75;97611.84;171292;28;898;-56
2022/03/06 00:01:17;;;;;;;;;;;;;;;39.21;8.85;97616.19;170446;29;1162;-55
2022/03/06 00:01:22;;;;;;;;;;;;;;;39.18;8.87;97608.50;170389;29;968;-56
2022/03/06 00:01:27;;;;;;;;;;;;;;;39.19;8.93;97616.41;170513;29;1564;-55
2022/03/06 00:01:32;;;;;;;;;;;;;;;39.21;8.80;97611.63;170542;29;1072;-55
2022/03/06 00:01:38;;;;;;;;;;;;;;;39.23;8.80;97609.53;170984;28;882;-55
2022/03/06 00:01:44;;;;;;;;;;;;;;;39.25;8.89;97614.72;170530;29;1111;-56
2022/03/06 00:01:49;;;;;;;;;;;;;;;39.26;8.75;97610.97;170645;28;976;-55
2022/03/06 00:01:54;;;;;;;;;;;;;;;39.22;8.91;97618.69;171323;28;972;-55
2022/03/06 00:01:59;;;;;;;;;;;;;;;39.21;8.93;97611.63;170757;28;952;-54
2022/03/06 00:02:05;;;;;;;;;;;;;;;39.22;8.80;97613.28;170739;28;1201;-57
2022/03/06 00:02:10;;;;;;;;;;;;;;;39.17;8.99;97610.38;171319;28;892;-56
2022/03/06 00:02:15;;;;;;;;;;;;;;;39.17;8.83;97609.53;171316;28;822;-56
2022/03/06 00:02:20;;;;;;;;;;;;;;;39.17;8.79;97609.53;170119;29;1320;-55
2022/03/06 00:02:26;;;;;;;;;;;;;;;39.14;8.77;97604.56;170407;29;819;-55
2022/03/06 00:02:31;;;;;;;;;;;;;;;39.15;8.87;97606.22;170593;29;992;-55
2022/03/06 00:02:36;;;;;;;;;;;;;;;39.10;8.92;97606.81;170659;29;897;-55
2022/03/06 00:02:42;;;;;;;;;;;;;;;39.11;8.88;97607.66;170549;29;1130;-56
2022/03/06 00:02:47;;;;;;;;;;;;;;;39.11;8.87;97613.88;170580;29;1034;-55
2022/03/06 00:02:53;;;;;;;;;;;;;;;39.17;8.76;97610.38;169832;29;981;-56
2022/03/06 00:02:58;;;;;;;;;;;;;;;39.16;8.86;97614.09;170064;29;736;-56
2022/03/06 00:03:04;;;;;;;;;;;;;;;39.16;8.83;97608.72;169667;29;1155;-56
2022/03/06 00:03:09;;;;;;;;;;;;;;;39.11;8.85;97604.97;169891;29;850;-55
2022/03/06 00:03:14;;;;;;;;;;;;;;;39.11;8.80;97610.38;169610;29;890;-55
2022/03/06 00:03:20;;;;;;;;;;;;;;;39.11;8.67;97611.19;169222;29;831;-56
2022/03/06 00:03:25;;;;;;;;;;;;;;;39.13;8.88;97610.97;170015;29;779;-55
2022/03/06 00:03:30;;;;;;;;;;;;;;;39.12;8.86;97609.31;170672;29;1209;-56
2022/03/06 00:03:35;;;;;;;;;;;;;;;39.12;8.87;97617.41;170658;29;941;-55
2022/03/06 00:03:40;;;;;;;;;;;;;;;39.13;8.80;97613.66;170631;28;1158;-55
2022/03/06 00:03:47;;;;;;;;;;;;;;;39.12;8.86;97609.31;171093;28;812;-55
2022/03/06 00:03:52;;;;;;;;;;;;;;;39.09;8.76;97607.84;171323;28;1096;-56
2022/03/06 00:03:57;;;;;;;;;;;;;;;39.09;8.79;97608.66;171271;28;898;-55
2022/03/06 00:04:03;;;;;;;;;;;;;;;39.12;9.12;97609.31;170909;28;1052;-56
2022/03/06 00:04:08;;;;;;;;;;;;;;;39.08;8.81;97609.72;171303;28;854;-55
2022/03/06 00:04:13;;;;;;;;;;;;;;;39.08;8.82;97607.00;170789;28;4384;-55
2022/03/06 00:04:18;;;;;;;;;;;;;;;39.08;8.97;97607.00;171194;28;1280;-54
2022/03/06 00:04:23;;;;;;;;;;;;;;;39.06;8.85;97606.41;171765;28;830;-55
2022/03/06 00:04:29;;;;;;;;;;;;;;;39.07;8.91;97604.53;171961;28;1086;-55
2022/03/06 00:04:34;;;;;;;;;;;;;;;39.07;8.88;97602.66;171260;28;1095;-56
2022/03/06 00:04:39;;;;;;;;;;;;;;;39.11;8.92;97610.38;170903;28;1048;-55
2022/03/06 00:04:44;;;;;;;;;;;;;;;39.12;8.77;97612.84;171162;28;1008;-55
2022/03/06 00:04:50;;;;;;;;;;;;;;;39.11;8.97;97610.38;170895;28;964;-55
2022/03/06 00:04:55;;;;;;;;;;;;;;;39.13;8.86;97609.13;171976;28;794;-56
2022/03/06 00:05:00;;;;;;;;;;;;;;;39.14;8.88;97607.28;171666;28;1095;-55
2022/03/06 00:05:05;;;;;;;;;;;;;;;39.12;8.88;97610.16;171774;28;1352;-55
2022/03/06 00:05:10;;;;;;;;;;;;;;;39.17;8.86;97609.53;171620;28;920;-56
2022/03/06 00:05:16;;;;;;;;;;;;;;;39.13;8.88;97608.28;171903;28;1193;-56
2022/03/06 00:05:21;;;;;;;;;;;;;;;39.13;8.93;97608.28;171415;28;929;-56
2022/03/06 00:05:26;;;;;;;;;;;;;;;39.12;8.82;97610.16;171457;28;1194;-55
2022/03/06 00:05:34;;;;;;;;;;;;;;;39.15;8.93;97603.53;171830;28;878;-54
2022/03/06 00:05:39;;;;;;;;;;;;;;;39.14;8.97;97609.97;171410;28;1119;-55
2022/03/06 00:05:45;;;;;;;;;;;;;;;39.13;8.88;97602.88;171283;28;882;-56
2022/03/06 00:05:50;;;;;;;;;;;;;;;39.14;8.83;97612.66;171235;28;1154;-56
2022/03/06 00:05:55;;;;;;;;;;;;;;;39.12;8.88;97607.44;171338;28;880;-55
2022/03/06 00:06:00;;;;;;;;;;;;;;;39.13;8.94;97608.28;171002;28;1070;-55
2022/03/06 00:06:05;;;;;;;;;;;;;;;39.12;9.15;97606.63;171274;28;893;-55
2022/03/06 00:06:13;;;;;;;;;;;;;;;39.13;8.88;97610.97;171332;28;494;-56
2022/03/06 00:06:18;;;;;;;;;;;;;;;39.12;8.75;97606.63;171149;28;866;-55
2022/03/06 00:06:24;;;;;;;;;;;;;;;39.13;9.01;97608.28;170964;28;1007;-56
2022/03/06 00:06:29;;;;;;;;;;;;;;;39.15;8.77;97615.16;171152;28;937;-55
2022/03/06 00:06:34;;;;;;;;;;;;;;;39.14;8.76;97607.28;171904;28;814;-56
2022/03/06 00:06:39;;;;;;;;;;;;;;;39.12;8.85;97612.03;171837;28;1190;-55
2022/03/06 00:06:44;;;;;;;;;;;;;;;39.17;8.87;97614.94;172018;28;900;-56
2022/03/06 00:06:50;;;;;;;;;;;;;;;39.16;8.90;97611.41;171913;28;987;-54
2022/03/06 00:06:55;;;;;;;;;;;;;;;39.19;8.82;97608.31;172033;28;949;-56
2022/03/06 00:07:00;;;;;;;;;;;;;;;39.17;8.86;97604.13;170855;28;1032;-55
2022/03/06 00:07:05;;;;;;;;;;;;;;;39.19;8.93;97607.50;171324;28;985;-55
2022/03/06 00:07:10;;;;;;;;;;;;;;;39.18;8.95;97608.50;171304;28;1166;-56
2022/03/06 00:07:15;;;;;;;;;;;;;;;39.16;8.93;97606.00;170769;28;1778;-56
2022/03/06 00:07:21;;;;;;;;;;;;;;;39.18;8.91;97605.78;170799;28;1326;-55
2022/03/06 00:07:26;;;;;;;;;;;;;;;39.18;8.87;97603.09;171110;28;1103;-55
2022/03/06 00:07:31;;;;;;;;;;;;;;;39.19;8.84;97608.31;171280;28;1277;-56
2022/03/06 00:07:37;;;;;;;;;;;;;;;39.18;8.96;97612.03;171265;28;1206;-55
2022/03/06 00:07:42;;;;;;;;;;;;;;;39.17;8.86;97607.66;171288;28;845;-56
2022/03/06 00:07:47;;;;;;;;;;;;;;;39.17;8.82;97614.94;171725;28;980;-55
2022/03/06 00:07:55;;;;;;;;;;;;;;;39.18;8.73;97608.50;172059;28;790;-56
2022/03/06 00:08:02;;;;;;;;;;;;;;;39.15;8.97;97607.06;171668;28;1039;-54
2022/03/06 00:08:07;;;;;;;;;;;;;;;39.15;8.87;97615.16;171835;28;822;-55
2022/03/06 00:08:12;;;;;;;;;;;;;;;39.19;8.75;97607.50;171726;28;1182;-55
2022/03/06 00:08:17;;;;;;;;;;;;;;;39.16;8.81;97605.19;171353;28;4371;-55
2022/03/06 00:08:22;;;;;;;;;;;;;;;39.16;8.90;97614.09;171450;28;2011;-55
2022/03/06 00:08:28;;;;;;;;;;;;;;;39.17;8.59;97604.13;171890;28;826;-57
2022/03/06 00:08:33;;;;;;;;;;;;;;;39.16;8.95;97605.19;171962;28;1157;-55
2022/03/06 00:08:38;;;;;;;;;;;;;;;39.17;8.76;97614.94;171868;28;948;-54
2022/03/06 00:08:43;;;;;;;;;;;;;;;39.18;9.08;97605.78;171879;28;806;-56
2022/03/06 00:08:49;;;;;;;;;;;;;;;39.19;8.77;97608.31;171986;28;1170;-55
2022/03/06 00:08:54;;;;;;;;;;;;;;;39.19;8.90;97604.78;171330;28;830;-55
2022/03/06 00:08:59;;;;;;;;;;;;;;;39.17;8.76;97601.44;171386;28;967;-55
2022/03/06 00:09:04;;;;;;;;;;;;;;;39.17;8.72;97604.13;171102;28;889;-49
2022/03/06 00:09:09;;;;;;;;;;;;;;;39.15;8.99;97608.94;171194;28;1020;-48
2022/03/06 00:09:15;;;;;;;;;;;;;;;39.16;8.83;97607.88;171027;28;702;-48
2022/03/06 00:09:20;;;;;;;;;;;;;;;39.15;8.93;97607.06;171218;28;929;-46
2022/03/06 00:09:25;;;;;;;;;;;;;;;39.17;8.85;97606.84;171847;28;944;-48
2022/03/06 00:09:30;;;;;;;;;;;;;;;39.21;8.88;97602.72;172039;28;920;-48
2022/03/06 00:09:35;;;;;;;;;;;;;;;39.22;8.81;97607.06;171972;28;1244;-48
2022/03/06 00:09:41;;;;;;;;;;;;;;;39.19;8.80;97608.31;171484;28;743;-48
2022/03/06 00:09:46;;;;;;;;;;;;;;;39.19;8.91;97602.09;171835;28;937;-47
2022/03/06 00:09:51;;;;;;;;;;;;;;;39.19;8.80;97604.78;171356;28;956;-48
2022/03/06 00:09:56;;;;;;;;;;;;;;;39.19;8.71;97604.78;171295;28;1134;-48
2022/03/06 00:10:03;;;;;;;;;;;;;;;39.22;8.81;97604.34;171581;28;1007;-49
2022/03/06 00:10:09;;;;;;;;;;;;;;;39.20;8.87;97601.06;171817;28;1106;-48
2022/03/06 00:10:14;;;;;;;;;;;;;;;39.20;8.76;97609.97;171491;28;849;-48
2022/03/06 00:10:20;;;;;;;;;;;;;;;39.19;8.90;97596.69;170415;28;924;-48
2022/03/06 00:10:26;;;;;;;;;;;;;;;39.18;8.97;97608.50;171089;28;885;-47
2022/03/06 00:10:31;;;;;;;;;;;;;;;39.18;8.76;97603.94;171178;28;909;-47
2022/03/06 00:10:36;;;;;;;;;;;;;;;39.19;8.88;97611.00;171209;28;881;-48
2022/03/06 00:10:41;;;;;;;;;;;;;;;39.19;8.85;97602.91;170977;28;807;-48
2022/03/06 00:10:47;;;;;;;;;;;;;;;39.20;8.65;97603.75;171105;28;1228;-48
2022/03/06 00:10:52;;;;;;;;;;;;;;;39.21;8.90;97605.41;171139;28;1063;-48
2022/03/06 00:10:57;;;;;;;;;;;;;;;39.19;8.92;97605.63;170720;28;901;-48
2022/03/06 00:11:02;;;;;;;;;;;;;;;39.19;8.69;97599.38;170363;29;1110;-49
2022/03/06 00:11:08;;;;;;;;;;;;;;;39.20;8.82;97609.97;170668;28;980;-47
2022/03/06 00:11:13;;;;;;;;;;;;;;;39.19;8.75;97607.50;170376;29;807;-48
2022/03/06 00:11:18;;;;;;;;;;;;;;;39.20;8.82;97609.16;170893;28;1138;-46
2022/03/06 00:11:24;;;;;;;;;;;;;;;39.21;8.73;97608.94;170395;28;929;-48
2022/03/06 00:11:29;;;;;;;;;;;;;;;39.23;8.76;97609.53;169743;28;1303;-54
2022/03/06 00:11:34;;;;;;;;;;;;;;;39.24;8.81;97607.66;167399;28;1462;-54
2022/03/06 00:11:39;;;;;;;;;;;;;;;39.23;8.89;97608.72;169344;28;1007;-55
2022/03/06 00:11:44;;;;;;;;;;;;;;;39.25;8.79;97606.63;169727;29;886;-53
2022/03/06 00:11:50;;;;;;;;;;;;;;;39.23;8.92;97609.53;170485;28;1084;-55
2022/03/06 00:11:56;;;;;;;;;;;;;;;39.24;8.95;97608.50;170811;28;1161;-55
2022/03/06 00:12:01;;;;;;;;;;;;;;;39.24;8.89;97604.97;170265;29;1142;-54
2022/03/06 00:12:06;;;;;;;;;;;;;;;39.27;8.85;97605.41;170507;29;996;-55
2022/03/06 00:12:11;;;;;;;;;;;;;;;39.25;8.67;97604.75;170145;29;1439;-54
2022/03/06 00:12:17;;;;;;;;;;;;;;;39.24;8.91;97604.97;169426;29;4197;-55
2022/03/06 00:12:22;;;;;;;;;;;;;;;39.23;8.86;97611.41;169708;29;799;-55
2022/03/06 00:12:27;;;;;;;;;;;;;;;39.22;8.76;97607.88;169887;29;783;-55
2022/03/06 00:12:32;;;;;;;;;;;;;;;39.24;8.93;97610.38;169825;29;1183;-53
2022/03/06 00:12:38;;;;;;;;;;;;;;;39.23;8.86;97606.84;169369;29;1536;-54
2022/03/06 00:12:43;;;;;;;;;;;;;;;39.22;8.80;97602.50;169716;29;974;-54
2022/03/06 00:12:48;;;;;;;;;;;;;;;39.21;8.68;97610.78;169877;29;902;-54
2022/03/06 00:12:55;;;;;;;;;;;;;;;39.19;8.96;97608.31;169932;29;1147;-55
2022/03/06 00:13:01;;;;;;;;;;;;;;;39.23;8.84;97600.63;169551;29;1029;-54
2022/03/06 00:13:06;;;;;;;;;;;;;;;39.22;8.84;97604.34;169857;29;1047;-54
2022/03/06 00:13:13;;;;;;;;;;;;;;;39.24;8.67;97605.81;170037;29;851;-55
2022/03/06 00:13:19;;;;;;;;;;;;;;;39.29;8.83;97602.50;170153;29;1166;-53
2022/03/06 00:13:24;;;;;;;;;;;;;;;39.28;8.69;97603.53;170316;29;838;-54
2022/03/06 00:13:29;;;;;;;;;;;;;;;39.27;8.80;97605.41;170593;29;1186;-56
2022/03/06 00:13:34;;;;;;;;;;;;;;;39.28;8.84;97607.06;170543;29;808;-55
2022/03/06 00:13:40;;;;;;;;;;;;;;;39.29;8.92;97607.88;170409;29;1035;-55
2022/03/06 00:13:45;;;;;;;;;;;;;;;39.28;8.75;97604.38;170570;29;848;-55
2022/03/06 00:13:50;;;;;;;;;;;;;;;39.27;8.83;97604.56;170526;29;954;-56
2022/03/06 00:13:56;;;;;;;;;;;;;;;39.25;8.87;97607.47;169861;29;874;-55
2022/03/06 00:14:01;;;;;;;;;;;;;;;39.26;8.85;97603.72;170075;29;1007;-54
2022/03/06 00:14:06;;;;;;;;;;;;;;;39.25;8.90;97598.53;171025;28;1162;-54
2022/03/06 00:14:11;;;;;;;;;;;;;;;39.22;8.85;97612.44;171236;28;874;-55
2022/03/06 00:14:17;;;;;;;;;;;;;;;39.26;8.96;97608.28;171427;28;1670;-54
2022/03/06 00:14:22;;;;;;;;;;;;;;;39.25;8.78;97604.75;171702;28;769;-55
2022/03/06 00:14:27;;;;;;;;;;;;;;;39.27;8.69;97605.41;171682;28;1043;-56
2022/03/06 00:14:32;;;;;;;;;;;;;;;39.28;8.78;97606.22;171733;28;806;-52
2022/03/06 00:14:38;;;;;;;;;;;;;;;39.25;8.81;97603.94;171263;28;1016;-53
2022/03/06 00:14:43;;;;;;;;;;;;;;;39.22;8.81;97601.66;171769;28;844;-54
2022/03/06 00:14:48;;;;;;;;;;;;;;;39.25;8.81;97603.94;171938;28;759;-55
2022/03/06 00:14:53;;;;;;;;;;;;;;;39.28;8.81;97608.94;171877;28;1095;-55
2022/03/06 00:14:59;;;;;;;;;;;;;;;39.24;8.74;97597.72;171622;28;893;-53
2022/03/06 00:15:04;;;;;;;;;;;;;;;39.28;8.65;97604.38;171615;28;1248;-55
2022/03/06 00:15:09;;;;;;;;;;;;;;;39.25;8.78;97603.94;171873;28;1126;-54
2022/03/06 00:15:14;;;;;;;;;;;;;;;39.25;8.75;97602.06;171845;28;1118;-54
2022/03/06 00:15:21;;;;;;;;;;;;;;;39.22;8.70;97604.34;171675;28;920;-54
2022/03/06 00:15:26;;;;;;;;;;;;;;;39.22;8.70;97602.50;171563;28;984;-56
2022/03/06 00:15:34;;;;;;;;;;;;;;;39.21;8.85;97591.91;171887;28;865;-54
2022/03/06 00:15:39;;;;;;;;;;;;;;;39.25;8.78;97599.38;171697;28;1200;-54
2022/03/06 00:15:44;;;;;;;;;;;;;;;39.26;8.78;97603.72;171975;28;1051;-55
2022/03/06 00:15:49;;;;;;;;;;;;;;;39.23;8.79;97597.91;171909;28;1134;-54
2022/03/06 00:15:54;;;;;;;;;;;;;;;39.22;8.91;97598.97;171320;28;905;-55
2022/03/06 00:16:00;;;;;;;;;;;;;;;39.20;8.70;97598.34;171078;28;1160;-53
2022/03/06 00:16:05;;;;;;;;;;;;;;;39.19;8.86;97600.22;171874;28;1126;-54
2022/03/06 00:16:10;;;;;;;;;;;;;;;39.23;8.76;97603.31;171956;28;949;-54
2022/03/06 00:16:15;;;;;;;;;;;;;;;39.23;8.75;97597.91;171510;28;4401;-55
2022/03/06 00:16:20;;;;;;;;;;;;;;;39.24;8.69;97600.41;171258;28;858;-53
2022/03/06 00:16:26;;;;;;;;;;;;;;;39.19;8.81;97597.53;171768;28;1000;-54
2022/03/06 00:16:31;;;;;;;;;;;;;;;39.17;8.82;97601.44;172001;28;869;-56
2022/03/06 00:16:36;;;;;;;;;;;;;;;39.17;8.75;97601.44;171833;28;1145;-55
2022/03/06 00:16:42;;;;;;;;;;;;;;;39.18;8.91;97605.78;171803;28;936;-55
2022/03/06 00:16:47;;;;;;;;;;;;;;;39.20;8.70;97595.66;171562;28;1008;-55
2022/03/06 00:16:53;;;;;;;;;;;;;;;39.18;8.76;97601.22;171150;28;1286;-56
2022/03/06 00:16:58;;;;;;;;;;;;;;;39.15;8.83;97598.13;171316;28;688;-54
2022/03/06 00:17:03;;;;;;;;;;;;;;;39.16;9.03;97600.63;170913;28;1265;-54
2022/03/06 00:17:08;;;;;;;;;;;;;;;39.16;8.95;97607.88;171105;28;869;-54
2022/03/06 00:17:13;;;;;;;;;;;;;;;39.17;8.87;97598.75;171233;28;1198;-54
2022/03/06 00:17:19;;;;;;;;;;;;;;;39.16;8.88;97599.78;170877;28;933;-53
2022/03/06 00:17:24;;;;;;;;;;;;;;;39.14;8.81;97599.19;170514;28;1139;-55
2022/03/06 00:17:29;;;;;;;;;;;;;;;39.12;8.77;97599.34;171132;28;1426;-54
2022/03/06 00:17:34;;;;;;;;;;;;;;;39.11;8.93;97600.41;171136;28;1115;-56
2022/03/06 00:17:39;;;;;;;;;;;;;;;39.13;8.72;97597.50;171099;28;747;-54
2022/03/06 00:17:44;;;;;;;;;;;;;;;39.16;8.83;97602.50;170664;28;905;-55
2022/03/06 00:17:50;;;;;;;;;;;;;;;39.13;8.80;97598.34;170278;29;1159;-55
2022/03/06 00:17:55;;;;;;;;;;;;;;;39.16;8.81;97602.50;170574;29;893;-54
2022/03/06 00:18:00;;;;;;;;;;;;;;;39.15;8.77;97603.53;170276;28;1290;-56
2022/03/06 00:18:05;;;;;;;;;;;;;;;39.15;8.96;97604.34;170522;29;930;-55
2022/03/06 00:18:10;;;;;;;;;;;;;;;39.16;8.95;97603.31;170411;29;1055;-55
2022/03/06 00:18:16;;;;;;;;;;;;;;;39.16;8.92;97608.72;170612;29;865;-55
2022/03/06 00:18:21;;;;;;;;;;;;;;;39.17;8.69;97606.84;169450;29;886;-54
2022/03/06 00:18:26;;;;;;;;;;;;;;;39.16;8.80;97595.22;170403;29;1313;-54
2022/03/06 00:18:31;;;;;;;;;;;;;;;39.16;8.87;97599.78;171255;28;905;-55
2022/03/06 00:18:37;;;;;;;;;;;;;;;39.18;8.77;97600.41;170393;29;1155;-55
2022/03/06 00:18:42;;;;;;;;;;;;;;;39.17;8.79;97604.13;170453;29;814;-55
2022/03/06 00:18:47;;;;;;;;;;;;;;;39.18;8.80;97595.84;170366;29;1060;-54
2022/03/06 00:18:52;;;;;;;;;;;;;;;39.18;8.76;97605.78;170616;29;818;-55
2022/03/06 00:18:57;;;;;;;;;;;;;;;39.15;8.81;97598.97;170605;29;1230;-54
2022/03/06 00:19:03;;;;;;;;;;;;;;;39.18;8.91;97603.09;170791;28;1070;-55
2022/03/06 00:19:08;;;;;;;;;;;;;;;39.17;8.87;97604.97;171229;28;751;-54
2022/03/06 00:19:13;;;;;;;;;;;;;;;39.18;8.82;97597.72;171219;28;1292;-54
2022/03/06 00:19:19;;;;;;;;;;;;;;;39.18;8.86;97595.84;170387;29;732;-52
2022/03/06 00:19:24;;;;;;;;;;;;;;;39.18;9.13;97605.78;170863;28;1225;-55
2022/03/06 00:19:29;;;;;;;;;;;;;;;39.20;8.82;97606.44;171387;28;826;-54
2022/03/06 00:19:34;;;;;;;;;;;;;;;39.20;8.79;97601.06;171101;28;995;-54
2022/03/06 00:19:39;;;;;;;;;;;;;;;39.20;8.70;97599.19;171207;28;979;-55
2022/03/06 00:19:45;;;;;;;;;;;;;;;39.17;8.91;97598.75;171188;28;1003;-55
2022/03/06 00:19:50;;;;;;;;;;;;;;;39.18;8.71;97597.72;171822;28;813;-55
2022/03/06 00:19:55;;;;;;;;;;;;;;;39.20;8.91;97601.06;171995;28;905;-55
2022/03/06 00:20:02;;;;;;;;;;;;;;;39.20;8.86;97603.75;171066;28;949;-54
2022/03/06 00:20:08;;;;;;;;;;;;;;;39.18;8.95;97601.22;171307;28;854;-55
2022/03/06 00:20:13;;;;;;;;;;;;;;;39.17;8.93;97604.13;171660;28;865;-55
2022/03/06 00:20:19;;;;;;;;;;;;;;;39.20;8.64;97601.06;170530;28;4364;-54
2022/03/06 00:20:24;;;;;;;;;;;;;;;39.19;8.88;97602.09;171610;28;1128;-55
2022/03/06 00:20:29;;;;;;;;;;;;;;;39.24;8.84;97599.56;170968;28;719;-54
2022/03/06 00:20:34;;;;;;;;;;;;;;;39.21;8.86;97602.72;170982;28;1047;-55
2022/03/06 00:20:40;;;;;;;;;;;;;;;39.19;8.71;97600.22;171135;28;921;-54
2022/03/06 00:20:45;;;;;;;;;;;;;;;39.20;8.82;97606.44;170926;28;1202;-55
2022/03/06 00:20:51;;;;;;;;;;;;;;;39.23;9.01;97603.31;171303;28;585;-54
2022/03/06 00:20:58;;;;;;;;;;;;;;;39.22;8.81;97597.09;171266;28;1004;-55
2022/03/06 00:21:04;;;;;;;;;;;;;;;39.24;8.58;97596.88;170929;28;982;-54
2022/03/06 00:21:11;;;;;;;;;;;;;;;39.21;8.87;97600.84;171253;28;1040;-54
2022/03/06 00:21:16;;;;;;;;;;;;;;;39.18;8.82;97598.53;170801;28;980;-54
2022/03/06 00:21:21;;;;;;;;;;;;;;;39.19;8.57;97604.78;171262;28;1138;-55
2022/03/06 00:21:26;;;;;;;;;;;;;;;39.19;8.95;97602.91;170744;28;917;-55
2022/03/06 00:21:31;;;;;;;;;;;;;;;39.18;8.79;97595.84;170604;29;1134;-54
2022/03/06 00:21:37;;;;;;;;;;;;;;;39.17;8.90;97596.88;170605;29;1146;-54
2022/03/06 00:21:42;;;;;;;;;;;;;;;39.20;8.74;97603.75;169146;29;1528;-55
2022/03/06 00:21:47;;;;;;;;;;;;;;;39.18;8.86;97589.63;169497;29;992;-55
2022/03/06 00:21:53;;;;;;;;;;;;;;;39.18;8.88;97600.41;169709;29;760;-54
2022/03/06 00:21:58;;;;;;;;;;;;;;;39.19;8.93;97600.22;169715;29;1250;-54
2022/03/06 00:22:03;;;;;;;;;;;;;;;39.17;9.14;97598.75;169689;29;1159;-55
2022/03/06 00:22:08;;;;;;;;;;;;;;;39.16;8.90;97603.31;169850;29;989;-53
2022/03/06 00:22:13;;;;;;;;;;;;;;;39.16;8.93;97595.22;169836;29;1028;-54
2022/03/06 00:22:19;;;;;;;;;;;;;;;39.13;8.83;97597.50;169054;29;1239;-54
2022/03/06 00:22:24;;;;;;;;;;;;;;;39.12;8.81;97601.22;169582;29;917;-55
2022/03/06 00:22:30;;;;;;;;;;;;;;;39.12;8.86;97595.84;169907;29;1159;-55
2022/03/06 00:22:35;;;;;;;;;;;;;;;39.13;8.92;97605.59;170050;29;775;-55
2022/03/06 00:22:40;;;;;;;;;;;;;;;39.19;8.77;97596.69;170017;29;969;-54
2022/03/06 00:22:46;;;;;;;;;;;;;;;39.14;8.88;97601.88;170612;29;872;-55
2022/03/06 00:22:51;;;;;;;;;;;;;;;39.13;8.69;97598.34;170403;29;1117;-55
2022/03/06 00:22:56;;;;;;;;;;;;;;;39.13;8.76;97592.94;170629;29;1088;-54
2022/03/06 00:23:02;;;;;;;;;;;;;;;39.15;8.85;97596.25;170189;29;1189;-54
2022/03/06 00:23:08;;;;;;;;;;;;;;;39.18;8.82;97600.41;170062;29;1059;-54
2022/03/06 00:23:13;;;;;;;;;;;;;;;39.17;8.74;97591.47;170606;29;687;-55
2022/03/06 00:23:19;;;;;;;;;;;;;;;39.16;8.91;97597.91;169605;29;893;-53
2022/03/06 00:23:25;;;;;;;;;;;;;;;39.17;8.92;97598.75;170336;29;834;-54
2022/03/06 00:23:30;;;;;;;;;;;;;;;39.18;8.74;97590.44;171306;28;1135;-53
2022/03/06 00:23:35;;;;;;;;;;;;;;;39.20;8.60;97598.34;171223;28;798;-55
2022/03/06 00:23:40;;;;;;;;;;;;;;;39.22;8.80;97590.88;170980;28;1063;-54
2022/03/06 00:23:46;;;;;;;;;;;;;;;39.22;8.87;97596.28;171329;28;810;-54
2022/03/06 00:23:51;;;;;;;;;;;;;;;39.21;8.59;97600.00;170692;28;1098;-54
2022/03/06 00:23:56;;;;;;;;;;;;;;;39.23;8.87;97603.31;171298;28;885;-54
2022/03/06 00:24:01;;;;;;;;;;;;;;;39.22;8.70;97599.78;170999;28;1185;-54
2022/03/06 00:24:07;;;;;;;;;;;;;;;39.24;8.81;97600.41;171154;28;1166;-55
2022/03/06 00:24:12;;;;;;;;;;;;;;;39.22;8.71;97601.66;171025;28;718;-54
2022/03/06 00:24:17;;;;;;;;;;;;;;;39.25;8.85;97596.66;169631;29;4406;-54
2022/03/06 00:24:22;;;;;;;;;;;;;;;39.23;8.80;97597.91;170285;28;818;-55
2022/03/06 00:24:27;;;;;;;;;;;;;;;39.23;8.70;97603.31;170529;29;1206;-55
2022/03/06 00:24:33;;;;;;;;;;;;;;;39.21;8.80;97594.59;170428;29;881;-53
2022/03/06 00:24:38;;;;;;;;;;;;;;;39.23;8.96;97597.91;170655;29;965;-54
2022/03/06 00:24:43;;;;;;;;;;;;;;;39.24;8.85;97600.41;170003;29;897;-55
2022/03/06 00:24:48;;;;;;;;;;;;;;;39.22;8.78;97593.56;170652;29;561;-55
2022/03/06 00:24:56;;;;;;;;;;;;;;;39.22;8.71;97599.78;170606;29;1242;-54
2022/03/06 00:25:02;;;;;;;;;;;;;;;39.27;8.74;97601.88;170095;29;1061;-54
2022/03/06 00:25:07;;;;;;;;;;;;;;;39.24;8.87;97600.41;170300;29;823;-55
2022/03/06 00:25:13;;;;;;;;;;;;;;;39.22;8.85;97598.97;170195;29;855;-55
2022/03/06 00:25:18;;;;;;;;;;;;;;;39.25;8.68;97599.38;170462;29;1254;-55
2022/03/06 00:25:23;;;;;;;;;;;;;;;39.21;8.80;97600.84;170354;29;779;-55
2022/03/06 00:25:28;;;;;;;;;;;;;;;39.24;8.57;97596.88;170771;28;1035;-55
2022/03/06 00:25:34;;;;;;;;;;;;;;;39.22;8.91;97597.09;171271;28;945;-55
2022/03/06 00:25:39;;;;;;;;;;;;;;;39.22;8.97;97596.28;170024;29;1305;-53
2022/03/06 00:25:44;;;;;;;;;;;;;;;39.25;8.71;97591.28;170683;29;945;-56
2022/03/06 00:25:50;;;;;;;;;;;;;;;39.25;8.67;97601.22;170527;29;1151;-55
2022/03/06 00:25:55;;;;;;;;;;;;;;;39.24;8.65;97595.00;170674;29;787;-55
2022/03/06 00:26:00;;;;;;;;;;;;;;;39.27;8.60;97599.19;170364;29;1079;-55
2022/03/06 00:26:07;;;;;;;;;;;;;;;39.28;8.67;97600.84;170229;29;1365;-55
2022/03/06 00:26:12;;;;;;;;;;;;;;;39.26;8.78;97600.19;170513;29;1063;-56
2022/03/06 00:26:17;;;;;;;;;;;;;;;39.26;8.78;97594.78;171111;28;957;-54
2022/03/06 00:26:23;;;;;;;;;;;;;;;39.27;8.75;97601.88;170961;28;905;-55
2022/03/06 00:26:28;;;;;;;;;;;;;;;39.26;8.87;97597.50;171222;28;1177;-55
2022/03/06 00:26:33;;;;;;;;;;;;;;;39.24;8.89;97596.88;170835;28;902;-54
2022/03/06 00:26:39;;;;;;;;;;;;;;;39.26;8.98;97601.03;170680;28;992;-54
2022/03/06 00:26:44;;;;;;;;;;;;;;;39.26;8.82;97597.50;170632;28;913;-56
2022/03/06 00:26:49;;;;;;;;;;;;;;;39.29;8.89;97597.94;171015;28;1303;-55
2022/03/06 00:26:54;;;;;;;;;;;;;;;39.26;8.65;97602.88;170718;28;913;-55
2022/03/06 00:27:00;;;;;;;;;;;;;;;39.26;8.71;97594.78;170655;28;964;-53
2022/03/06 00:27:05;;;;;;;;;;;;;;;39.25;8.80;97596.66;170832;28;890;-55
2022/03/06 00:27:10;;;;;;;;;;;;;;;39.27;8.78;97594.59;170640;29;815;-55
2022/03/06 00:27:15;;;;;;;;;;;;;;;39.27;8.70;97594.59;171071;28;1199;-55
2022/03/06 00:27:20;;;;;;;;;;;;;;;39.27;8.96;97599.19;171040;28;587;-54
2022/03/06 00:27:26;;;;;;;;;;;;;;;39.26;8.60;97594.78;170724;28;996;-54
2022/03/06 00:27:31;;;;;;;;;;;;;;;39.26;8.71;97601.03;171316;28;1341;-54
2022/03/06 00:27:36;;;;;;;;;;;;;;;39.27;8.84;97596.47;171035;28;993;-55
2022/03/06 00:27:41;;;;;;;;;;;;;;;39.25;8.85;97598.53;170766;28;1616;-54
2022/03/06 00:27:46;;;;;;;;;;;;;;;39.20;8.66;97599.19;170979;28;1016;-54
2022/03/06 00:27:52;;;;;;;;;;;;;;;39.22;8.68;97601.66;171377;28;814;-55
2022/03/06 00:27:57;;;;;;;;;;;;;;;39.20;8.74;97603.75;171309;28;686;-56
2022/03/06 00:28:02;;;;;;;;;;;;;;;39.17;8.85;97599.56;171152;28;1020;-55
2022/03/06 00:28:07;;;;;;;;;;;;;;;39.23;8.75;97600.63;171786;28;1001;-55
2022/03/06 00:28:12;;;;;;;;;;;;;;;39.24;8.71;97595.00;171433;28;1122;-55
2022/03/06 00:28:18;;;;;;;;;;;;;;;39.27;8.98;97596.47;170768;28;4539;-55
2022/03/06 00:28:23;;;;;;;;;;;;;;;39.25;8.91;97598.53;170854;28;1934;-56
2022/03/06 00:28:28;;;;;;;;;;;;;;;39.25;8.65;97595.84;171394;28;893;-54
2022/03/06 00:28:33;;;;;;;;;;;;;;;39.29;8.70;97605.19;171758;28;881;-54
2022/03/06 00:28:39;;;;;;;;;;;;;;;39.26;8.74;97601.03;171808;28;987;-54
2022/03/06 00:28:44;;;;;;;;;;;;;;;39.26;8.78;97597.50;172064;28;814;-54
2022/03/06 00:28:49;;;;;;;;;;;;;;;39.27;8.68;97604.56;171713;28;1142;-55
2022/03/06 00:28:55;;;;;;;;;;;;;;;39.24;8.70;97596.88;171309;28;905;-55
2022/03/06 00:29:00;;;;;;;;;;;;;;;39.25;8.67;97601.22;171419;28;968;-52
2022/03/06 00:29:05;;;;;;;;;;;;;;;39.24;8.75;97599.56;171394;28;937;-54
2022/03/06 00:29:10;;;;;;;;;;;;;;;39.23;8.78;97597.91;171441;28;1043;-52
2022/03/06 00:29:15;;;;;;;;;;;;;;;39.23;8.75;97603.31;172021;28;830;-55